Golts, Maryland
Current Conditions -  °F | °C
As of 12:58 PM on Sunday 23 Nov 2014 (Local Time) from KDOV Reporting Station
Clear Clear  
Wind Chill: 53°   Ceiling: Unl
Heat Index: 53°   Visibility: 10mi
Dew Point: 36°   Wind: 7mph
Humidity: 53%   Direction: 190°S
Pressure: 30.16"   Gusts: NA
Location:  39.3314°N, 75.8397°W
Report Text: KDOV 231758Z AUTO 19006KT 10SM CLR 12/02 A3016 RMK AO2 SLP216 T01150023 10116 20012 57020
Loading
Personal Weather Stations






























Interactive Weather Map New forecast layout! Learn more

10-Day Weather Forecast

Advertisements
Track Severe Weather on mobile